createdAt,value
2022-10-16T00:00:23.499Z,1009.21
2022-10-16T00:01:26.290Z,1009.22
2022-10-16T00:02:29.624Z,1009.17
2022-10-16T00:04:04.835Z,1009.14
2022-10-16T00:05:07.598Z,1009.17
2022-10-16T00:06:10.452Z,1009.15
2022-10-16T00:07:45.053Z,1009.17
2022-10-16T00:08:48.015Z,1009.14
2022-10-16T00:09:50.792Z,1009.15
2022-10-16T00:11:25.491Z,1009.12
2022-10-16T00:12:28.977Z,1009.15
2022-10-16T00:13:31.901Z,1009.16
2022-10-16T00:15:06.730Z,1009.24
2022-10-16T00:16:09.692Z,1009.28
2022-10-16T00:17:12.554Z,1009.28
2022-10-16T00:18:47.157Z,1009.24
2022-10-16T00:19:49.878Z,1009.27
2022-10-16T00:20:52.803Z,1009.25
2022-10-16T00:22:27.763Z,1009.26
2022-10-16T00:23:31.176Z,1009.28
2022-10-16T00:24:34.028Z,1009.30
2022-10-16T00:26:08.642Z,1009.34
2022-10-16T00:27:11.703Z,1009.34
2022-10-16T00:28:14.512Z,1009.28
2022-10-16T00:29:49.659Z,1009.32
2022-10-16T00:30:52.397Z,1009.33
2022-10-16T00:31:55.166Z,1009.31
2022-10-16T00:33:29.738Z,1009.38
2022-10-16T00:34:32.648Z,1009.33
2022-10-16T00:35:35.356Z,1009.41
2022-10-16T00:37:09.868Z,1009.40
2022-10-16T00:38:12.667Z,1009.39
2022-10-16T00:39:15.437Z,1009.43
2022-10-16T00:40:49.937Z,1009.33
2022-10-16T00:41:52.756Z,1009.32
2022-10-16T00:42:55.458Z,1009.33
2022-10-16T00:44:30.226Z,1009.32
2022-10-16T00:45:33.159Z,1009.41
2022-10-16T00:46:35.984Z,1009.35
2022-10-16T00:48:10.673Z,1009.37
2022-10-16T00:49:13.582Z,1009.34
2022-10-16T00:50:16.670Z,1009.33
2022-10-16T00:51:51.313Z,1009.31
2022-10-16T00:52:54.057Z,1009.34
2022-10-16T00:53:56.776Z,1009.35
2022-10-16T00:55:31.405Z,1009.33
2022-10-16T00:56:39.673Z,1009.31
2022-10-16T00:57:42.522Z,1009.38
2022-10-16T00:59:16.805Z,1009.36
2022-10-16T01:00:23.029Z,1009.32
2022-10-16T01:01:26.115Z,1009.35
2022-10-16T01:02:29.842Z,1009.38
2022-10-16T01:04:04.366Z,1009.40
2022-10-16T01:05:07.090Z,1009.40
2022-10-16T01:06:09.906Z,1009.46
2022-10-16T01:07:44.805Z,1009.40
2022-10-16T01:08:47.942Z,1009.40
2022-10-16T01:09:50.596Z,1009.37
2022-10-16T01:11:25.172Z,1009.30
2022-10-16T01:12:28.023Z,1009.34
2022-10-16T01:13:39.416Z,1009.40
2022-10-16T01:15:13.870Z,1009.41
2022-10-16T01:16:16.568Z,1009.40
2022-10-16T01:17:19.243Z,1009.41
2022-10-16T01:18:54.506Z,1009.38
2022-10-16T01:19:57.261Z,1009.39
2022-10-16T01:20:59.997Z,1009.31
2022-10-16T01:22:34.701Z,1009.37
2022-10-16T01:23:37.610Z,1009.33
2022-10-16T01:24:40.640Z,1009.38
2022-10-16T01:26:15.323Z,1009.40
2022-10-16T01:27:18.250Z,1009.41
2022-10-16T01:28:22.114Z,1009.37
2022-10-16T01:29:57.072Z,1009.39
2022-10-16T01:30:59.840Z,1009.37
2022-10-16T01:32:02.478Z,1009.40
2022-10-16T01:33:37.075Z,1009.38
2022-10-16T01:34:39.960Z,1009.39
2022-10-16T01:35:42.787Z,1009.40
2022-10-16T01:37:17.225Z,1009.38
2022-10-16T01:38:20.551Z,1009.34
2022-10-16T01:39:23.533Z,1009.39
2022-10-16T01:40:58.109Z,1009.34
2022-10-16T01:42:00.843Z,1009.28
2022-10-16T01:43:04.837Z,1009.32
2022-10-16T01:44:39.555Z,1009.27
2022-10-16T01:45:42.299Z,1009.30
2022-10-16T01:46:45.016Z,1009.28
2022-10-16T01:48:20.108Z,1009.26
2022-10-16T01:49:22.902Z,1009.28
2022-10-16T01:50:25.532Z,1009.26
2022-10-16T01:53:04.042Z,1009.29
2022-10-16T01:54:06.737Z,1009.24
2022-10-16T01:55:41.336Z,1009.27
2022-10-16T01:56:43.950Z,1009.22
2022-10-16T01:57:46.673Z,1009.25
2022-10-16T01:59:21.429Z,1009.23
2022-10-16T02:00:23.851Z,1009.24
2022-10-16T02:01:27.632Z,1009.23
2022-10-16T02:02:30.963Z,1009.19
2022-10-16T02:04:05.588Z,1009.22
2022-10-16T02:05:08.257Z,1009.20
2022-10-16T02:06:10.957Z,1009.17
2022-10-16T02:07:45.790Z,1009.25
2022-10-16T02:08:52.279Z,1009.26
2022-10-16T02:09:55.120Z,1009.24
2022-10-16T02:11:30.450Z,1009.26
2022-10-16T02:12:33.873Z,1009.26
2022-10-16T02:13:36.635Z,1009.31
2022-10-16T02:15:11.044Z,1009.32
2022-10-16T02:16:13.972Z,1009.41
2022-10-16T02:17:16.664Z,1009.34
2022-10-16T02:18:51.267Z,1009.33
2022-10-16T02:19:54.370Z,1009.36
2022-10-16T02:20:57.163Z,1009.32
2022-10-16T02:22:32.198Z,1009.28
2022-10-16T02:23:35.092Z,1009.29
2022-10-16T02:24:37.872Z,1009.28
2022-10-16T02:26:12.415Z,1009.28
2022-10-16T02:27:15.073Z,1009.33
2022-10-16T02:28:17.718Z,1009.36
2022-10-16T02:29:52.793Z,1009.35
2022-10-16T02:30:55.500Z,1009.36
2022-10-16T02:31:58.368Z,1009.36
2022-10-16T02:33:32.913Z,1009.39
2022-10-16T02:34:35.684Z,1009.41
2022-10-16T02:35:38.428Z,1009.38
2022-10-16T02:37:12.997Z,1009.37
2022-10-16T02:38:15.813Z,1009.40
2022-10-16T02:39:18.438Z,1009.39
2022-10-16T02:40:52.991Z,1009.39
2022-10-16T02:41:55.812Z,1009.36
2022-10-16T02:42:58.621Z,1009.40
2022-10-16T02:44:33.191Z,1009.40
2022-10-16T02:45:36.308Z,1009.46
2022-10-16T02:46:38.966Z,1009.43
2022-10-16T02:48:13.591Z,1009.41
2022-10-16T02:49:16.277Z,1009.40
2022-10-16T02:50:19.257Z,1009.42
2022-10-16T02:51:53.955Z,1009.41
2022-10-16T02:52:56.972Z,1009.35
2022-10-16T02:53:59.785Z,1009.39
2022-10-16T02:55:34.348Z,1009.43
2022-10-16T02:56:37.415Z,1009.41
2022-10-16T02:57:40.820Z,1009.45
2022-10-16T02:59:15.209Z,1009.43
2022-10-16T03:00:23.331Z,1009.39
2022-10-16T03:01:26.658Z,1009.37
2022-10-16T03:02:29.739Z,1009.41
2022-10-16T03:04:04.111Z,1009.43
2022-10-16T03:05:06.793Z,1009.45
2022-10-16T03:06:10.059Z,1009.50
2022-10-16T03:07:44.540Z,1009.48
2022-10-16T03:08:47.182Z,1009.55
2022-10-16T03:09:49.794Z,1009.58
2022-10-16T03:11:24.461Z,1009.56
2022-10-16T03:12:27.279Z,1009.55
2022-10-16T03:13:29.913Z,1009.57
2022-10-16T03:15:04.506Z,1009.67
2022-10-16T03:16:07.324Z,1009.67
2022-10-16T03:17:10.091Z,1009.60
2022-10-16T03:18:45.231Z,1009.69
2022-10-16T03:19:47.881Z,1009.61
2022-10-16T03:20:50.768Z,1009.63
2022-10-16T03:22:25.181Z,1009.57
2022-10-16T03:23:28.270Z,1009.54
2022-10-16T03:24:31.077Z,1009.58
2022-10-16T03:26:05.953Z,1009.61
2022-10-16T03:27:08.814Z,1009.59
2022-10-16T03:28:11.839Z,1009.64
2022-10-16T03:29:46.989Z,1009.60
2022-10-16T03:30:49.728Z,1009.60
2022-10-16T03:31:52.319Z,1009.58
2022-10-16T03:33:27.000Z,1009.55
2022-10-16T03:34:29.992Z,1009.56
2022-10-16T03:35:32.914Z,1009.56
2022-10-16T03:37:07.552Z,1009.60
2022-10-16T03:38:10.989Z,1009.55
2022-10-16T03:39:13.826Z,1009.62
2022-10-16T03:40:48.300Z,1009.62
2022-10-16T03:41:51.052Z,1009.58
2022-10-16T03:42:54.176Z,1009.57
2022-10-16T03:44:28.876Z,1009.52
2022-10-16T03:45:31.592Z,1009.52
2022-10-16T03:46:34.356Z,1009.53
2022-10-16T03:48:09.476Z,1009.59
2022-10-16T03:49:15.663Z,1009.55
2022-10-16T03:50:18.516Z,1009.54
2022-10-16T03:51:53.134Z,1009.55
2022-10-16T03:52:55.921Z,1009.54
2022-10-16T03:53:58.649Z,1009.57
2022-10-16T03:55:33.390Z,1009.60
2022-10-16T03:56:36.197Z,1009.64
2022-10-16T03:57:39.457Z,1009.58
2022-10-16T03:59:14.077Z,1009.69
2022-10-16T04:00:22.930Z,1009.68
2022-10-16T04:01:26.054Z,1009.70
2022-10-16T04:02:28.781Z,1009.73
2022-10-16T04:04:04.862Z,1009.70
2022-10-16T04:05:51.634Z,1009.71
2022-10-16T04:06:54.343Z,1009.75
2022-10-16T04:07:57.327Z,1009.77
2022-10-16T04:09:32.261Z,1009.73
2022-10-16T04:10:35.097Z,1009.75
2022-10-16T04:11:38.064Z,1009.73
2022-10-16T04:13:12.925Z,1009.73
2022-10-16T04:14:15.794Z,1009.78
2022-10-16T04:15:18.665Z,1009.71
2022-10-16T04:16:53.624Z,1009.72
2022-10-16T04:17:56.671Z,1009.71
2022-10-16T04:18:59.323Z,1009.74
2022-10-16T04:20:34.182Z,1009.79
2022-10-16T04:21:37.124Z,1009.84
2022-10-16T04:22:40.053Z,1009.88
2022-10-16T04:24:14.803Z,1009.94
2022-10-16T04:25:17.667Z,1009.94
2022-10-16T04:26:20.589Z,1009.93
2022-10-16T04:27:57.492Z,1009.93
2022-10-16T04:29:00.551Z,1009.91
2022-10-16T04:30:03.579Z,1009.92
2022-10-16T04:31:38.052Z,1009.96
2022-10-16T04:32:40.878Z,1009.95
2022-10-16T04:33:43.825Z,1009.99
2022-10-16T04:35:18.100Z,1010.04
2022-10-16T04:36:23.272Z,1010.03
2022-10-16T04:37:28.817Z,1010.11
2022-10-16T04:39:03.789Z,1010.11
2022-10-16T04:40:06.635Z,1010.17
2022-10-16T04:41:09.493Z,1010.17
2022-10-16T04:42:44.195Z,1010.17
2022-10-16T04:43:46.920Z,1010.24
2022-10-16T04:44:49.628Z,1010.19
2022-10-16T04:46:24.369Z,1010.22
2022-10-16T04:47:27.298Z,1010.22
2022-10-16T04:48:30.638Z,1010.25
2022-10-16T04:50:05.116Z,1010.31
2022-10-16T04:51:07.797Z,1010.32
2022-10-16T04:52:10.648Z,1010.33
2022-10-16T04:53:45.786Z,1010.37
2022-10-16T04:54:48.711Z,1010.35
2022-10-16T04:55:51.398Z,1010.38
2022-10-16T04:57:26.518Z,1010.38
2022-10-16T04:58:29.308Z,1010.40
2022-10-16T04:59:32.151Z,1010.43
2022-10-16T05:00:22.943Z,1010.39
2022-10-16T05:01:25.982Z,1010.42
2022-10-16T05:02:28.976Z,1010.41
2022-10-16T05:04:04.701Z,1010.40
2022-10-16T05:05:07.663Z,1010.43
2022-10-16T05:06:10.642Z,1010.44
2022-10-16T05:07:45.465Z,1010.50
2022-10-16T05:08:48.307Z,1010.46
2022-10-16T05:09:51.251Z,1010.53
2022-10-16T05:11:26.011Z,1010.52
2022-10-16T05:12:28.797Z,1010.48
2022-10-16T05:13:31.456Z,1010.49
2022-10-16T05:15:11.460Z,1010.52
2022-10-16T05:16:14.139Z,1010.53
2022-10-16T05:17:16.972Z,1010.56
2022-10-16T05:18:53.216Z,1010.54
2022-10-16T05:20:24.801Z,1010.56
2022-10-16T05:21:27.507Z,1010.54
2022-10-16T05:23:02.243Z,1010.56
2022-10-16T05:24:04.980Z,1010.62
2022-10-16T05:25:07.574Z,1010.68
2022-10-16T05:26:42.102Z,1010.67
2022-10-16T05:27:44.771Z,1010.75
2022-10-16T05:28:47.815Z,1010.72
2022-10-16T05:30:24.034Z,1010.73
2022-10-16T05:31:26.775Z,1010.77
2022-10-16T05:32:29.624Z,1010.80
2022-10-16T05:34:04.197Z,1010.83
2022-10-16T05:35:10.095Z,1010.80
2022-10-16T05:36:15.432Z,1010.82
2022-10-16T05:37:50.044Z,1010.84
2022-10-16T05:38:52.910Z,1010.83
2022-10-16T05:39:55.563Z,1010.88
2022-10-16T05:41:30.143Z,1010.87
2022-10-16T05:42:33.042Z,1010.90
2022-10-16T05:43:35.851Z,1010.91
2022-10-16T05:45:10.414Z,1010.84
2022-10-16T05:46:13.255Z,1010.85
2022-10-16T05:47:15.987Z,1010.85
2022-10-16T05:48:51.285Z,1010.88
2022-10-16T05:49:53.983Z,1010.89
2022-10-16T05:50:56.763Z,1010.99
2022-10-16T05:52:31.491Z,1010.98
2022-10-16T05:53:34.373Z,1011.04
2022-10-16T05:54:37.299Z,1011.08
2022-10-16T05:56:11.708Z,1011.08
2022-10-16T05:57:14.425Z,1011.12
2022-10-16T05:58:18.115Z,1011.16
2022-10-16T05:59:52.883Z,1011.15
2022-10-16T06:00:24.052Z,1011.18
2022-10-16T06:01:27.325Z,1011.19
2022-10-16T06:02:30.198Z,1011.18
2022-10-16T06:04:04.887Z,1011.21
2022-10-16T06:05:08.921Z,1011.27
2022-10-16T06:06:17.805Z,1011.30
2022-10-16T06:07:52.567Z,1011.27
2022-10-16T06:08:55.458Z,1011.28
2022-10-16T06:09:58.344Z,1011.36
2022-10-16T06:11:33.142Z,1011.33
2022-10-16T06:12:36.011Z,1011.37
2022-10-16T06:13:38.848Z,1011.41
2022-10-16T06:15:13.582Z,1011.37
2022-10-16T06:16:16.282Z,1011.37
2022-10-16T06:17:19.172Z,1011.44
2022-10-16T06:18:54.185Z,1011.47
2022-10-16T06:19:56.941Z,1011.45
2022-10-16T06:20:59.754Z,1011.44
2022-10-16T06:22:34.646Z,1011.48
2022-10-16T06:23:37.589Z,1011.50
2022-10-16T06:24:40.725Z,1011.51
2022-10-16T06:26:15.502Z,1011.55
2022-10-16T06:27:18.124Z,1011.55
2022-10-16T06:28:21.606Z,1011.56
2022-10-16T06:29:56.885Z,1011.60
2022-10-16T06:31:02.932Z,1011.59
2022-10-16T06:32:09.934Z,1011.61
2022-10-16T06:33:44.541Z,1011.62
2022-10-16T06:34:49.925Z,1011.65
2022-10-16T06:35:52.664Z,1011.68
2022-10-16T06:37:27.416Z,1011.79
2022-10-16T06:38:30.359Z,1011.78
2022-10-16T06:39:33.152Z,1011.81
2022-10-16T06:41:07.712Z,1011.74
2022-10-16T06:42:11.648Z,1011.73
2022-10-16T06:43:15.282Z,1011.79
2022-10-16T06:44:49.877Z,1011.82
2022-10-16T06:45:52.519Z,1011.83
2022-10-16T06:46:55.220Z,1011.85
2022-10-16T06:48:29.989Z,1011.90
2022-10-16T06:49:32.808Z,1011.91
2022-10-16T06:50:40.448Z,1011.96
2022-10-16T06:52:15.462Z,1011.95
2022-10-16T06:53:18.830Z,1011.96
2022-10-16T06:54:53.821Z,1012.01
2022-10-16T06:56:28.639Z,1012.05
2022-10-16T06:57:31.917Z,1012.09
2022-10-16T06:58:34.817Z,1012.11
2022-10-16T07:01:27.363Z,1012.20
2022-10-16T07:02:30.839Z,1012.20
2022-10-16T07:04:05.515Z,1012.23
2022-10-16T07:05:08.274Z,1012.22
2022-10-16T07:06:11.339Z,1012.24
2022-10-16T07:07:46.054Z,1012.31
2022-10-16T07:08:48.723Z,1012.31
2022-10-16T07:09:51.487Z,1012.29
2022-10-16T07:11:26.150Z,1012.37
2022-10-16T07:12:29.584Z,1012.38
2022-10-16T07:13:32.454Z,1012.38
2022-10-16T07:15:14.008Z,1012.45
2022-10-16T07:16:16.958Z,1012.43
2022-10-16T07:17:19.655Z,1012.50
2022-10-16T07:18:55.560Z,1012.48
2022-10-16T07:19:58.973Z,1012.52
2022-10-16T07:21:01.733Z,1012.52
2022-10-16T07:22:36.973Z,1012.52
2022-10-16T07:23:40.390Z,1012.47
2022-10-16T07:24:43.449Z,1012.50
2022-10-16T07:26:21.785Z,1012.58
2022-10-16T07:27:24.769Z,1012.63
2022-10-16T07:28:27.860Z,1012.64
2022-10-16T07:30:05.215Z,1012.72
2022-10-16T07:31:11.264Z,1012.69
2022-10-16T07:32:14.395Z,1012.68
2022-10-16T07:33:49.701Z,1012.69
2022-10-16T07:34:52.556Z,1012.71
2022-10-16T07:35:55.431Z,1012.77
2022-10-16T07:37:34.810Z,1012.80
2022-10-16T07:38:37.795Z,1012.85
2022-10-16T07:39:46.135Z,1012.84
2022-10-16T07:41:20.908Z,1012.79
2022-10-16T07:42:23.973Z,1012.77
2022-10-16T07:43:26.736Z,1012.85
2022-10-16T07:45:01.205Z,1012.87
2022-10-16T07:46:08.241Z,1012.86
2022-10-16T07:47:11.133Z,1012.89
2022-10-16T07:48:46.341Z,1012.91
2022-10-16T07:49:49.386Z,1012.86
2022-10-16T07:50:52.179Z,1012.92
2022-10-16T07:52:26.963Z,1012.98
2022-10-16T07:53:33.595Z,1012.97
2022-10-16T07:54:36.482Z,1012.97
2022-10-16T07:56:11.247Z,1012.96
2022-10-16T07:57:14.105Z,1013.00
2022-10-16T07:58:17.411Z,1013.01
2022-10-16T07:59:52.070Z,1012.97
2022-10-16T08:00:22.922Z,1012.97
2022-10-16T08:01:26.189Z,1013.03
2022-10-16T08:02:29.524Z,1013.09
2022-10-16T08:05:08.069Z,1013.06
2022-10-16T08:06:10.825Z,1012.98
2022-10-16T08:07:51.357Z,1012.97
2022-10-16T08:08:54.085Z,1012.99
2022-10-16T08:09:56.982Z,1013.01
2022-10-16T08:11:31.666Z,1013.02
2022-10-16T08:12:34.713Z,1013.03
2022-10-16T08:13:37.575Z,1013.00
2022-10-16T08:15:12.356Z,1013.02
2022-10-16T08:16:15.112Z,1013.01
2022-10-16T08:17:17.975Z,1013.02
2022-10-16T08:18:53.175Z,1013.09
2022-10-16T08:19:55.993Z,1013.03
2022-10-16T08:20:58.722Z,1013.09
2022-10-16T08:22:39.679Z,1013.15
2022-10-16T08:23:42.474Z,1013.12
2022-10-16T08:24:52.203Z,1013.21
2022-10-16T08:26:27.019Z,1013.17
2022-10-16T08:27:30.313Z,1013.20
2022-10-16T08:28:33.602Z,1013.26
2022-10-16T08:30:09.078Z,1013.34
2022-10-16T08:31:12.271Z,1013.34
2022-10-16T08:32:15.134Z,1013.39
2022-10-16T08:33:56.513Z,1013.47
2022-10-16T08:34:59.485Z,1013.46
2022-10-16T08:36:02.317Z,1013.48
2022-10-16T08:37:36.821Z,1013.51
2022-10-16T08:38:39.571Z,1013.55
2022-10-16T08:39:42.541Z,1013.54
2022-10-16T08:41:17.244Z,1013.49
2022-10-16T08:42:20.152Z,1013.54
2022-10-16T08:43:23.366Z,1013.55
2022-10-16T08:44:57.964Z,1013.51
2022-10-16T08:46:00.812Z,1013.48
2022-10-16T08:47:04.489Z,1013.45
2022-10-16T08:48:39.129Z,1013.48
2022-10-16T08:50:45.027Z,1013.48
2022-10-16T08:52:19.566Z,1013.58
2022-10-16T08:53:22.810Z,1013.47
2022-10-16T08:54:25.646Z,1013.51
2022-10-16T08:56:00.426Z,1013.56
2022-10-16T08:57:03.098Z,1013.58
2022-10-16T08:58:10.742Z,1013.55
2022-10-16T08:59:51.650Z,1013.56
2022-10-16T09:00:23.504Z,1013.56
2022-10-16T09:01:26.892Z,1013.59
2022-10-16T09:02:30.605Z,1013.66
2022-10-16T09:04:05.440Z,1013.71
2022-10-16T09:05:08.282Z,1013.72
2022-10-16T09:06:11.324Z,1013.72
2022-10-16T09:07:46.102Z,1013.75
2022-10-16T09:08:52.902Z,1013.80
2022-10-16T09:09:55.691Z,1013.80
2022-10-16T09:11:30.302Z,1013.85
2022-10-16T09:12:33.743Z,1013.83
2022-10-16T09:13:36.507Z,1013.86
2022-10-16T09:15:11.342Z,1013.91
2022-10-16T09:16:14.440Z,1013.97
2022-10-16T09:17:17.801Z,1013.99
2022-10-16T09:18:53.408Z,1013.97
2022-10-16T09:19:56.178Z,1014.02
2022-10-16T09:20:59.025Z,1014.06
2022-10-16T09:22:33.919Z,1014.07
2022-10-16T09:23:36.613Z,1014.05
2022-10-16T09:24:40.722Z,1014.05
2022-10-16T09:26:15.595Z,1014.11
2022-10-16T09:27:18.468Z,1014.15
2022-10-16T09:28:21.978Z,1014.16
2022-10-16T09:30:01.613Z,1014.15
2022-10-16T09:31:04.727Z,1014.19
2022-10-16T09:32:07.452Z,1014.23
2022-10-16T09:33:42.139Z,1014.19
2022-10-16T09:34:44.962Z,1014.22
2022-10-16T09:35:47.682Z,1014.23
2022-10-16T09:37:22.388Z,1014.26
2022-10-16T09:38:25.819Z,1014.22
2022-10-16T09:39:28.644Z,1014.27
2022-10-16T09:41:10.315Z,1014.28
2022-10-16T09:42:13.206Z,1014.27
2022-10-16T09:43:16.257Z,1014.29
2022-10-16T09:44:50.935Z,1014.28
2022-10-16T09:45:53.699Z,1014.29
2022-10-16T09:46:56.371Z,1014.26
2022-10-16T09:48:31.198Z,1014.29
2022-10-16T09:49:34.196Z,1014.30
2022-10-16T09:50:37.052Z,1014.32
2022-10-16T09:52:11.746Z,1014.29
2022-10-16T09:53:14.513Z,1014.29
2022-10-16T09:54:17.489Z,1014.27
2022-10-16T09:55:52.105Z,1014.36
2022-10-16T09:57:00.003Z,1014.33
2022-10-16T09:58:02.770Z,1014.34
2022-10-16T09:59:37.377Z,1014.38
2022-10-16T10:00:23.277Z,1014.42
2022-10-16T10:01:26.077Z,1014.37
2022-10-16T10:02:28.788Z,1014.39
2022-10-16T10:04:03.647Z,1014.39
2022-10-16T10:05:06.567Z,1014.44
2022-10-16T10:06:13.444Z,1014.36
2022-10-16T10:07:48.171Z,1014.36
2022-10-16T10:08:51.173Z,1014.39
2022-10-16T10:09:54.082Z,1014.39
2022-10-16T10:11:28.883Z,1014.37
2022-10-16T10:12:37.836Z,1014.38
2022-10-16T10:13:40.552Z,1014.36
2022-10-16T10:15:15.342Z,1014.39
2022-10-16T10:16:18.157Z,1014.39
2022-10-16T10:17:21.002Z,1014.38
2022-10-16T10:18:55.667Z,1014.38
2022-10-16T10:19:58.428Z,1014.42
2022-10-16T10:21:01.502Z,1014.41
2022-10-16T10:22:37.055Z,1014.45
2022-10-16T10:23:39.945Z,1014.46
2022-10-16T10:24:42.638Z,1014.44
2022-10-16T10:26:17.462Z,1014.45
2022-10-16T10:27:26.090Z,1014.47
2022-10-16T10:28:29.032Z,1014.48
2022-10-16T10:30:04.223Z,1014.48
2022-10-16T10:31:07.152Z,1014.50
2022-10-16T10:32:10.008Z,1014.53
2022-10-16T10:33:45.838Z,1014.53
2022-10-16T10:34:52.880Z,1014.52
2022-10-16T10:35:58.661Z,1014.57
2022-10-16T10:37:33.153Z,1014.51
2022-10-16T10:38:36.268Z,1014.56
2022-10-16T10:39:38.942Z,1014.51
2022-10-16T10:41:13.569Z,1014.54
2022-10-16T10:42:20.898Z,1014.61
2022-10-16T10:43:24.173Z,1014.60
2022-10-16T10:44:59.147Z,1014.66
2022-10-16T10:46:01.938Z,1014.65
2022-10-16T10:47:04.884Z,1014.66
2022-10-16T10:48:39.552Z,1014.70
2022-10-16T10:49:44.230Z,1014.75
2022-10-16T10:50:49.438Z,1014.73
2022-10-16T10:52:24.215Z,1014.77
2022-10-16T10:53:27.332Z,1014.71
2022-10-16T10:54:30.196Z,1014.73
2022-10-16T10:56:04.825Z,1014.75
2022-10-16T10:57:07.626Z,1014.76
2022-10-16T10:58:10.601Z,1014.76
2022-10-16T10:59:50.039Z,1014.78
2022-10-16T11:00:23.736Z,1014.75
2022-10-16T11:01:27.090Z,1014.81
2022-10-16T11:02:31.048Z,1014.78
2022-10-16T11:04:10.142Z,1014.82
2022-10-16T11:05:13.149Z,1014.78
2022-10-16T11:06:15.957Z,1014.78
2022-10-16T11:07:50.721Z,1014.77
2022-10-16T11:08:56.414Z,1014.82
2022-10-16T11:10:02.316Z,1014.78
2022-10-16T11:11:36.997Z,1014.80
2022-10-16T11:12:39.916Z,1014.78
2022-10-16T11:13:42.765Z,1014.75
2022-10-16T11:15:17.490Z,1014.76
2022-10-16T11:16:26.153Z,1014.80
2022-10-16T11:17:29.457Z,1014.80
2022-10-16T11:19:04.426Z,1014.83
2022-10-16T11:20:07.370Z,1014.82
2022-10-16T11:21:10.417Z,1014.84
2022-10-16T11:22:49.271Z,1014.87
2022-10-16T11:23:52.058Z,1014.90
2022-10-16T11:24:55.131Z,1014.92
2022-10-16T11:26:29.769Z,1014.89
2022-10-16T11:27:33.276Z,1014.94
2022-10-16T11:28:42.327Z,1015.00
2022-10-16T11:30:17.518Z,1015.03
2022-10-16T11:31:20.678Z,1015.00
2022-10-16T11:32:23.602Z,1015.04
2022-10-16T11:33:58.505Z,1015.00
2022-10-16T11:35:01.556Z,1015.07
2022-10-16T11:36:04.619Z,1015.01
2022-10-16T11:37:39.860Z,1014.95
2022-10-16T11:38:42.632Z,1014.98
2022-10-16T11:39:45.589Z,1014.98
2022-10-16T11:41:20.538Z,1014.97
2022-10-16T11:42:23.317Z,1015.01
2022-10-16T11:43:26.189Z,1015.00
2022-10-16T11:45:01.050Z,1015.04
2022-10-16T11:46:06.472Z,1015.03
2022-10-16T11:48:05.515Z,1015.06
2022-10-16T11:49:40.872Z,1015.05
2022-10-16T11:50:43.551Z,1015.05
2022-10-16T11:51:46.334Z,1015.03
2022-10-16T11:53:21.324Z,1015.05
2022-10-16T11:54:24.071Z,1015.06
2022-10-16T11:55:26.979Z,1015.03
2022-10-16T11:57:08.157Z,1015.07
2022-10-16T11:58:11.986Z,1015.05
2022-10-16T11:59:15.266Z,1015.07
2022-10-16T12:00:23.410Z,1015.01
2022-10-16T12:01:26.775Z,1015.04
2022-10-16T12:02:30.357Z,1015.09
2022-10-16T12:04:05.751Z,1015.11
2022-10-16T12:05:08.560Z,1015.12
2022-10-16T12:06:11.421Z,1015.12
2022-10-16T12:07:46.218Z,1015.15
2022-10-16T12:08:49.106Z,1015.16
2022-10-16T12:09:52.001Z,1015.17
2022-10-16T12:11:27.443Z,1015.14
2022-10-16T12:12:33.048Z,1015.21
2022-10-16T12:13:39.067Z,1015.17
2022-10-16T12:16:03.561Z,1015.18
2022-10-16T12:17:06.637Z,1015.20
2022-10-16T12:18:09.508Z,1015.21
2022-10-16T12:19:44.460Z,1015.23
2022-10-16T12:20:47.461Z,1015.22
2022-10-16T12:21:50.367Z,1015.28
2022-10-16T12:23:32.610Z,1015.32
2022-10-16T12:24:35.715Z,1015.31
2022-10-16T12:25:38.645Z,1015.31
2022-10-16T12:27:13.091Z,1015.34
2022-10-16T12:28:15.975Z,1015.32
2022-10-16T12:29:19.385Z,1015.35
2022-10-16T12:30:54.292Z,1015.34
2022-10-16T12:32:10.853Z,1015.38
2022-10-16T12:33:40.994Z,1015.41
2022-10-16T12:35:15.920Z,1015.46
2022-10-16T12:36:21.959Z,1015.51
2022-10-16T12:37:27.240Z,1015.45
2022-10-16T12:39:02.299Z,1015.49
2022-10-16T12:40:05.529Z,1015.41
2022-10-16T12:41:08.323Z,1015.46
2022-10-16T12:42:43.123Z,1015.44
2022-10-16T12:43:46.349Z,1015.41
2022-10-16T12:44:49.141Z,1015.44
2022-10-16T12:46:24.252Z,1015.48
2022-10-16T12:47:27.478Z,1015.47
2022-10-16T12:48:49.441Z,1015.48
2022-10-16T12:50:38.039Z,1015.48
2022-10-16T12:51:41.051Z,1015.55
2022-10-16T12:52:44.212Z,1015.54
2022-10-16T12:54:19.199Z,1015.59
2022-10-16T12:55:22.126Z,1015.58
2022-10-16T12:56:25.181Z,1015.59
2022-10-16T12:58:04.479Z,1015.60
2022-10-16T12:59:07.423Z,1015.56
2022-10-16T13:00:24.014Z,1015.60
2022-10-16T13:01:28.159Z,1015.60
2022-10-16T13:02:31.089Z,1015.60
2022-10-16T13:04:09.952Z,1015.62
2022-10-16T13:05:12.978Z,1015.55
2022-10-16T13:06:16.238Z,1015.58
2022-10-16T13:07:51.149Z,1015.60
2022-10-16T13:08:54.036Z,1015.60
2022-10-16T13:09:57.143Z,1015.57
2022-10-16T13:11:31.940Z,1015.59
2022-10-16T13:12:35.116Z,1015.58
2022-10-16T13:13:38.216Z,1015.57
2022-10-16T13:15:12.883Z,1015.63
2022-10-16T13:16:16.039Z,1015.65
2022-10-16T13:17:19.001Z,1015.64
2022-10-16T13:18:54.072Z,1015.61
2022-10-16T13:19:56.981Z,1015.60
2022-10-16T13:21:00.097Z,1015.60
2022-10-16T13:22:34.841Z,1015.61
2022-10-16T13:23:43.643Z,1015.61
2022-10-16T13:24:46.907Z,1015.65
2022-10-16T13:26:21.946Z,1015.62
2022-10-16T13:27:25.058Z,1015.64
2022-10-16T13:28:28.304Z,1015.64
2022-10-16T13:30:03.670Z,1015.65
2022-10-16T13:31:06.752Z,1015.62
2022-10-16T13:32:09.719Z,1015.61
2022-10-16T13:33:44.784Z,1015.58
2022-10-16T13:34:47.806Z,1015.58
2022-10-16T13:35:50.650Z,1015.58
2022-10-16T13:37:25.941Z,1015.64
2022-10-16T13:38:29.175Z,1015.68
2022-10-16T13:39:32.145Z,1015.65
2022-10-16T13:41:06.918Z,1015.66
2022-10-16T13:42:14.873Z,1015.62
2022-10-16T13:43:21.431Z,1015.68
2022-10-16T13:44:56.340Z,1015.71
2022-10-16T13:45:59.120Z,1015.74
2022-10-16T13:47:02.274Z,1015.77
2022-10-16T13:48:37.086Z,1015.79
2022-10-16T13:49:39.982Z,1015.73
2022-10-16T13:50:43.156Z,1015.76
2022-10-16T13:52:18.164Z,1015.77
2022-10-16T13:53:21.950Z,1015.80
2022-10-16T13:54:24.880Z,1015.82
2022-10-16T13:56:00.004Z,1015.82
2022-10-16T13:57:33.270Z,1015.86
2022-10-16T13:58:36.248Z,1015.89
2022-10-16T14:00:23.971Z,1015.91
2022-10-16T14:01:30.007Z,1015.95
2022-10-16T14:02:36.606Z,1015.85
2022-10-16T14:04:11.441Z,1015.85
2022-10-16T14:05:14.230Z,1015.86
2022-10-16T14:06:17.329Z,1015.83
2022-10-16T14:07:51.976Z,1015.83
2022-10-16T14:08:55.118Z,1015.78
2022-10-16T14:09:58.062Z,1015.76
2022-10-16T14:11:32.695Z,1015.75
2022-10-16T14:12:40.403Z,1015.69
2022-10-16T14:13:43.366Z,1015.72
2022-10-16T14:15:18.044Z,1015.71
2022-10-16T14:16:21.079Z,1015.73
2022-10-16T14:17:24.251Z,1015.76
2022-10-16T14:18:59.259Z,1015.81
2022-10-16T14:20:12.465Z,1015.89
2022-10-16T14:21:15.587Z,1015.87
2022-10-16T14:22:50.597Z,1015.90
2022-10-16T14:23:53.347Z,1015.89
2022-10-16T14:24:56.265Z,1015.89
2022-10-16T14:26:30.978Z,1015.89
2022-10-16T14:27:40.240Z,1015.86
2022-10-16T14:28:43.758Z,1015.88
2022-10-16T14:30:19.119Z,1015.88
2022-10-16T14:31:21.986Z,1015.89
2022-10-16T14:32:25.178Z,1015.93
2022-10-16T14:34:00.385Z,1015.99
2022-10-16T14:35:03.047Z,1016.02
2022-10-16T14:36:06.098Z,1016.01
2022-10-16T14:37:41.578Z,1016.01
2022-10-16T14:38:44.864Z,1016.02
2022-10-16T14:39:47.836Z,1015.95
2022-10-16T14:41:22.815Z,1015.98
2022-10-16T14:42:25.863Z,1015.94
2022-10-16T14:43:28.942Z,1015.95
2022-10-16T14:45:10.489Z,1015.93
2022-10-16T14:46:13.698Z,1015.92
2022-10-16T14:47:16.568Z,1015.94
2022-10-16T14:48:53.154Z,1015.93
2022-10-16T14:49:56.197Z,1015.96
2022-10-16T14:50:59.116Z,1015.94
2022-10-16T14:52:33.736Z,1015.93
2022-10-16T14:53:36.639Z,1015.95
2022-10-16T14:54:46.087Z,1015.92
2022-10-16T14:56:22.248Z,1015.97
2022-10-16T14:57:25.956Z,1015.96
2022-10-16T14:58:29.024Z,1016.01
2022-10-16T15:00:23.707Z,1015.99